Time;durP1;ratioP1;P1;durP2;ratioP2;P2;SDS_P1;SDS_P2;PMS_P1;PMS_P2;Temp;Humidity;BMP_temperature;BMP_pressure;BME280_temperature;BME280_humidity;BME280_pressure;Samples;Min_cycle;Max_cycle;Signal;HPM_P1;HPM_P2
2023/08/31 00:01:16;;;;;;;8.52;3.22;;;;;;;;;;5012381;27;93239;-61
2023/08/31 00:03:44;;;;;;;9.13;3.70;;;;;;;;;;5012139;27;94324;-62
2023/08/31 00:06:10;;;;;;;5.85;2.85;;;;;;;;;;5016074;27;92515;-61
2023/08/31 00:08:37;;;;;;;6.35;2.97;;;;;;;;;;5013418;27;94125;-61
2023/08/31 00:11:03;;;;;;;6.47;3.08;;;;;;;;;;5021172;27;96295;-61
2023/08/31 00:13:30;;;;;;;11.82;3.45;;;;;;;;;;5013042;27;92549;-61
2023/08/31 00:15:59;;;;;;;6.32;3.00;;;;;;;;;;5010682;27;95005;-61
2023/08/31 00:18:26;;;;;;;3.93;2.93;;;;;;;;;;5012059;27;93934;-61
2023/08/31 00:20:53;;;;;;;8.52;3.42;;;;;;;;;;5015712;27;92392;-62
2023/08/31 00:23:19;;;;;;;4.75;3.13;;;;;;;;;;5012463;27;93403;-61
2023/08/31 00:25:47;;;;;;;5.15;3.00;;;;;;;;;;5015502;27;92566;-61
2023/08/31 00:28:15;;;;;;;7.63;3.70;;;;;;;;;;5012185;27;93282;-61
2023/08/31 00:30:44;;;;;;;11.95;3.13;;;;;;;;;;5011916;27;92484;-62
2023/08/31 00:33:11;;;;;;;5.85;3.38;;;;;;;;;;5017523;27;91676;-61
2023/08/31 00:35:42;;;;;;;7.40;3.70;;;;;;;;;;5016578;27;93446;-61
2023/08/31 00:38:08;;;;;;;;;;;;;;;;;;5016716;27;93875;-61
2023/08/31 00:40:40;;;;;;;6.78;3.47;;;;;;;;;;5015099;27;118389;-61
2023/08/31 00:43:07;;;;;;;12.85;3.75;;;;;;;;;;5012080;27;93433;-62
2023/08/31 00:45:34;;;;;;;6.80;4.05;;;;;;;;;;5012293;27;92557;-62
2023/08/31 00:48:01;;;;;;;11.73;4.88;;;;;;;;;;5015016;27;94246;-61
2023/08/31 00:50:27;;;;;;;9.25;4.50;;;;;;;;;;5012277;27;96890;-62
2023/08/31 00:52:53;;;;;;;12.60;4.72;;;;;;;;;;5025563;27;92391;-62
2023/08/31 00:55:20;;;;;;;10.23;4.70;;;;;;;;;;5017377;27;93249;-62
2023/08/31 00:57:46;;;;;;;12.60;4.75;;;;;;;;;;5016096;27;92648;-61
2023/08/31 01:00:14;;;;;;;8.00;4.82;;;;;;;;;;5015547;27;92406;-61
2023/08/31 01:02:46;;;;;;;10.57;5.35;;;;;;;;;;5016618;27;93298;-61
2023/08/31 01:05:15;;;;;;;9.57;5.43;;;;;;;;;;5017986;27;94849;-61
2023/08/31 01:08:00;;;;;;;14.55;5.68;;;;;;;;;;5023472;27;96495;-62
2023/08/31 01:10:37;;;;;;;11.52;5.85;;;;;;;;;;5034589;27;93330;-62
2023/08/31 01:13:11;;;;;;;11.32;6.10;;;;;;;;;;5015757;27;92527;-61
2023/08/31 01:15:40;;;;;;;10.88;6.38;;;;;;;;;;5019607;27;93157;-61
2023/08/31 01:18:09;;;;;;;11.38;6.38;;;;;;;;;;5019887;27;94578;-61
2023/08/31 01:20:38;;;;;;;15.02;7.57;;;;;;;;;;5015381;27;92594;-61
2023/08/31 01:23:10;;;;;;;8.00;5.87;;;;;;;;;;5019873;27;93011;-61
2023/08/31 01:25:37;;;;;;;11.88;7.38;;;;;;;;;;5018278;27;93491;-61
2023/08/31 01:28:05;;;;;;;20.25;8.23;;;;;;;;;;5015120;27;93080;-61
2023/08/31 01:30:31;;;;;;;11.55;7.03;;;;;;;;;;5013196;27;97300;-62
2023/08/31 01:32:58;;;;;;;11.77;7.45;;;;;;;;;;5015106;27;92564;-61
2023/08/31 01:35:25;;;;;;;13.32;7.90;;;;;;;;;;5015411;27;93088;-62
2023/08/31 01:37:58;;;;;;;19.17;8.43;;;;;;;;;;5014207;27;93371;-62
2023/08/31 01:40:45;;;;;;;13.75;8.45;;;;;;;;;;5014995;27;92730;-61
2023/08/31 01:43:11;;;;;;;19.05;9.18;;;;;;;;;;5018433;27;93165;-61
2023/08/31 01:45:39;;;;;;;17.95;9.90;;;;;;;;;;5019179;27;93430;-62
2023/08/31 01:48:06;;;;;;;16.65;8.82;;;;;;;;;;5020750;27;91847;-62
2023/08/31 01:50:32;;;;;;;20.33;9.73;;;;;;;;;;5013824;27;93473;-62
2023/08/31 01:52:58;;;;;;;15.13;9.45;;;;;;;;;;5014937;27;92373;-61
2023/08/31 01:55:25;;;;;;;17.98;10.23;;;;;;;;;;5013100;27;94801;-62
2023/08/31 01:57:51;;;;;;;16.05;9.15;;;;;;;;;;5012925;27;93509;-61
2023/08/31 02:00:18;;;;;;;17.80;10.13;;;;;;;;;;5013943;27;92466;-62
2023/08/31 02:02:44;;;;;;;17.25;9.55;;;;;;;;;;5017336;27;93095;-61
2023/08/31 02:05:11;;;;;;;19.23;9.80;;;;;;;;;;5014664;27;94459;-62
2023/08/31 02:07:37;;;;;;;17.88;9.13;;;;;;;;;;5018340;27;92565;-62
2023/08/31 02:10:07;;;;;;;20.13;9.60;;;;;;;;;;5017387;27;93509;-61
2023/08/31 02:12:33;;;;;;;15.25;9.68;;;;;;;;;;5023350;28;95454;-61
2023/08/31 02:15:00;;;;;;;16.83;10.25;;;;;;;;;;5018631;27;92529;-61
2023/08/31 02:17:26;;;;;;;20.30;10.10;;;;;;;;;;5016072;27;92694;-61
2023/08/31 02:19:52;;;;;;;12.32;8.10;;;;;;;;;;5011086;27;94972;-61
2023/08/31 02:22:19;;;;;;;22.30;8.38;;;;;;;;;;5014475;27;95548;-61
2023/08/31 02:24:45;;;;;;;14.43;7.85;;;;;;;;;;5014616;27;94388;-61
2023/08/31 02:27:12;;;;;;;15.88;8.57;;;;;;;;;;5017846;27;92447;-61
2023/08/31 02:29:39;;;;;;;16.77;7.78;;;;;;;;;;5014333;27;94253;-61
2023/08/31 02:32:05;;;;;;;14.77;8.32;;;;;;;;;;5017411;27;93753;-62
2023/08/31 02:34:32;;;;;;;14.23;8.20;;;;;;;;;;5014000;27;93151;-61
2023/08/31 02:36:58;;;;;;;17.40;8.15;;;;;;;;;;5018325;27;93623;-61
2023/08/31 02:39:24;;;;;;;11.30;7.88;;;;;;;;;;5018784;27;92554;-61
2023/08/31 02:41:51;;;;;;;12.45;7.88;;;;;;;;;;5016408;27;93199;-62
2023/08/31 02:44:17;;;;;;;14.85;7.47;;;;;;;;;;5011872;27;96777;-62
2023/08/31 02:46:45;;;;;;;15.13;7.75;;;;;;;;;;5019069;27;92482;-62
2023/08/31 02:49:12;;;;;;;14.38;7.15;;;;;;;;;;5021719;27;92346;-62
2023/08/31 02:51:38;;;;;;;14.10;7.22;;;;;;;;;;5016979;27;95003;-61
2023/08/31 02:54:04;;;;;;;19.80;7.47;;;;;;;;;;5015855;27;93102;-61
2023/08/31 02:56:31;;;;;;;12.02;7.07;;;;;;;;;;5021511;27;93407;-61
2023/08/31 02:58:57;;;;;;;9.93;7.18;;;;;;;;;;5015731;27;92397;-61
2023/08/31 03:01:24;;;;;;;12.02;6.32;;;;;;;;;;5018198;27;94177;-61
2023/08/31 03:03:50;;;;;;;13.68;6.53;;;;;;;;;;5016803;27;93187;-61
2023/08/31 03:06:17;;;;;;;8.18;5.50;;;;;;;;;;5013933;27;92738;-62
2023/08/31 03:08:43;;;;;;;11.93;5.60;;;;;;;;;;5012269;27;94814;-62
2023/08/31 03:11:09;;;;;;;8.48;4.82;;;;;;;;;;5013116;27;93312;-62
2023/08/31 03:13:36;;;;;;;10.75;5.45;;;;;;;;;;5022028;27;93775;-61
2023/08/31 03:16:02;;;;;;;8.27;4.68;;;;;;;;;;5016848;27;93727;-61
2023/08/31 03:18:29;;;;;;;13.02;4.30;;;;;;;;;;5015194;27;92659;-62
2023/08/31 03:20:55;;;;;;;11.23;4.00;;;;;;;;;;5013013;27;93104;-62
2023/08/31 03:23:22;;;;;;;7.38;3.70;;;;;;;;;;5017875;27;93553;-62
2023/08/31 03:25:48;;;;;;;6.38;3.60;;;;;;;;;;5013868;27;91732;-61
2023/08/31 03:28:15;;;;;;;5.68;3.28;;;;;;;;;;5017058;27;92390;-61
2023/08/31 03:30:41;;;;;;;5.10;4.00;;;;;;;;;;5013345;27;94689;-61
2023/08/31 03:33:08;;;;;;;5.38;3.47;;;;;;;;;;5016208;27;95076;-61
2023/08/31 03:35:35;;;;;;;6.60;4.05;;;;;;;;;;5015803;27;95292;-61
2023/08/31 03:38:01;;;;;;;10.15;4.45;;;;;;;;;;5016608;27;92438;-61
2023/08/31 03:40:28;;;;;;;4.90;3.28;;;;;;;;;;5015214;27;94147;-61
2023/08/31 03:42:54;;;;;;;10.57;4.13;;;;;;;;;;5014805;27;93472;-61
2023/08/31 03:45:21;;;;;;;5.47;3.58;;;;;;;;;;5012942;27;92694;-62
2023/08/31 03:47:47;;;;;;;5.70;3.53;;;;;;;;;;5015823;27;94268;-61
2023/08/31 03:50:13;;;;;;;5.00;3.58;;;;;;;;;;5018022;27;91824;-61
2023/08/31 03:52:40;;;;;;;7.82;3.38;;;;;;;;;;5012975;27;92610;-61
2023/08/31 03:55:06;;;;;;;9.10;3.90;;;;;;;;;;5012478;27;93122;-62
2023/08/31 03:57:33;;;;;;;9.25;3.92;;;;;;;;;;5023334;27;95313;-61
2023/08/31 03:59:59;;;;;;;7.10;3.97;;;;;;;;;;5012911;27;95611;-61
2023/08/31 04:02:25;;;;;;;7.90;3.85;;;;;;;;;;5012764;27;93336;-61
2023/08/31 04:04:52;;;;;;;6.05;3.95;;;;;;;;;;5012331;27;92532;-61
2023/08/31 04:07:18;;;;;;;11.25;4.03;;;;;;;;;;5013319;27;93399;-61
2023/08/31 04:09:45;;;;;;;10.10;4.53;;;;;;;;;;5013138;27;93439;-61
2023/08/31 04:12:11;;;;;;;7.72;4.55;;;;;;;;;;5017012;27;92639;-61
2023/08/31 04:14:37;;;;;;;9.27;4.50;;;;;;;;;;5012803;27;94094;-61
2023/08/31 04:17:04;;;;;;;17.70;5.13;;;;;;;;;;5016617;27;93790;-61
2023/08/31 04:19:31;;;;;;;7.90;4.85;;;;;;;;;;5015747;27;92604;-61
2023/08/31 04:21:58;;;;;;;11.77;5.40;;;;;;;;;;5010262;27;95766;-61
2023/08/31 04:24:24;;;;;;;11.73;4.97;;;;;;;;;;5012885;27;92591;-61
2023/08/31 04:26:51;;;;;;;8.23;5.10;;;;;;;;;;5015548;27;93210;-62
2023/08/31 04:29:17;;;;;;;12.68;5.65;;;;;;;;;;5016136;27;98155;-61
2023/08/31 04:31:43;;;;;;;15.23;7.45;;;;;;;;;;5015342;27;92871;-61
2023/08/31 04:34:10;;;;;;;10.90;6.90;;;;;;;;;;5020509;27;93174;-60
2023/08/31 04:36:36;;;;;;;14.43;8.27;;;;;;;;;;5015666;27;93369;-60
2023/08/31 04:39:03;;;;;;;12.07;6.60;;;;;;;;;;5020865;27;91906;-61
2023/08/31 04:41:29;;;;;;;17.92;8.23;;;;;;;;;;5029995;27;95391;-61
2023/08/31 04:43:56;;;;;;;15.65;8.25;;;;;;;;;;5019054;27;92653;-61
2023/08/31 04:46:22;;;;;;;13.80;8.68;;;;;;;;;;5017464;27;94952;-61
2023/08/31 04:48:48;;;;;;;16.02;9.13;;;;;;;;;;5016270;27;93472;-60
2023/08/31 04:51:28;;;;;;;16.73;9.27;;;;;;;;;;5020438;27;92497;-62
2023/08/31 04:53:54;;;;;;;17.70;9.25;;;;;;;;;;5018885;27;94405;-61
2023/08/31 04:56:20;;;;;;;15.63;9.75;;;;;;;;;;5019686;27;94486;-61
2023/08/31 04:58:47;;;;;;;15.60;10.57;;;;;;;;;;5016749;27;92523;-61
2023/08/31 05:01:14;;;;;;;20.83;11.00;;;;;;;;;;5022746;27;94261;-61
2023/08/31 05:03:40;;;;;;;17.25;10.40;;;;;;;;;;5016490;27;91905;-61
2023/08/31 05:06:07;;;;;;;16.15;9.55;;;;;;;;;;5014575;27;93497;-60
2023/08/31 05:08:34;;;;;;;15.95;10.55;;;;;;;;;;5015471;27;92612;-60
2023/08/31 05:11:00;;;;;;;18.80;10.90;;;;;;;;;;5012830;27;94954;-60
2023/08/31 05:13:26;;;;;;;19.45;11.55;;;;;;;;;;5015055;27;97018;-60
2023/08/31 05:15:53;;;;;;;17.35;11.93;;;;;;;;;;5022927;27;94155;-60
2023/08/31 05:18:19;;;;;;;23.08;13.48;;;;;;;;;;5017682;27;93674;-60
2023/08/31 05:20:48;;;;;;;20.70;13.70;;;;;;;;;;5022672;27;94124;-60
2023/08/31 05:23:15;;;;;;;19.85;13.07;;;;;;;;;;5017089;27;93420;-60
2023/08/31 05:25:42;;;;;;;18.70;12.65;;;;;;;;;;5018823;27;92918;-60
2023/08/31 05:28:08;;;;;;;19.20;12.43;;;;;;;;;;5014544;27;92742;-60
2023/08/31 05:30:34;;;;;;;20.42;11.70;;;;;;;;;;5017870;27;92632;-60
2023/08/31 05:33:01;;;;;;;13.38;11.38;;;;;;;;;;5013622;27;93550;-59
2023/08/31 05:35:27;;;;;;;18.75;11.52;;;;;;;;;;5012597;27;96046;-59
2023/08/31 05:37:54;;;;;;;16.90;10.98;;;;;;;;;;5012972;27;92476;-61
2023/08/31 05:40:21;;;;;;;13.27;10.65;;;;;;;;;;5014553;27;94520;-60
2023/08/31 05:42:47;;;;;;;15.23;10.50;;;;;;;;;;5013797;27;93488;-60
2023/08/31 05:45:15;;;;;;;17.38;10.77;;;;;;;;;;5021320;27;92646;-60
2023/08/31 05:47:41;;;;;;;17.15;10.45;;;;;;;;;;5017217;27;93730;-60
2023/08/31 05:50:07;;;;;;;18.35;10.98;;;;;;;;;;5014685;27;92454;-61
2023/08/31 05:52:34;;;;;;;16.73;10.60;;;;;;;;;;5018563;27;93166;-60
2023/08/31 05:55:00;;;;;;;16.90;11.60;;;;;;;;;;5013751;27;94442;-60
2023/08/31 05:57:29;;;;;;;16.52;10.93;;;;;;;;;;5013546;27;92466;-61
2023/08/31 05:59:56;;;;;;;16.17;12.07;;;;;;;;;;5011815;27;94948;-60
2023/08/31 06:02:22;;;;;;;20.85;12.85;;;;;;;;;;5013531;27;93380;-60
2023/08/31 06:04:48;;;;;;;23.65;14.93;;;;;;;;;;5017818;27;92481;-60
2023/08/31 06:07:15;;;;;;;32.17;16.58;;;;;;;;;;5018517;27;93504;-60
2023/08/31 06:09:41;;;;;;;19.67;14.23;;;;;;;;;;5013442;27;92477;-60
2023/08/31 06:12:07;;;;;;;22.45;15.20;;;;;;;;;;5012655;27;93134;-61
2023/08/31 06:14:34;;;;;;;21.50;14.30;;;;;;;;;;5018086;27;93745;-60
2023/08/31 06:17:00;;;;;;;20.60;14.60;;;;;;;;;;5022687;27;91800;-59
2023/08/31 06:19:26;;;;;;;27.77;14.70;;;;;;;;;;5013439;27;92572;-60
2023/08/31 06:21:53;;;;;;;26.77;13.18;;;;;;;;;;5017213;27;93461;-60
2023/08/31 06:24:19;;;;;;;20.20;12.85;;;;;;;;;;5016338;27;94904;-60
2023/08/31 06:26:45;;;;;;;16.77;12.55;;;;;;;;;;5017360;27;95537;-60
2023/08/31 06:29:12;;;;;;;19.10;13.18;;;;;;;;;;5018476;27;93204;-60
2023/08/31 06:31:41;;;;;;;21.08;13.05;;;;;;;;;;5014107;27;93178;-60
2023/08/31 06:34:08;;;;;;;16.85;11.52;;;;;;;;;;5012781;27;93405;-60
2023/08/31 06:36:34;;;;;;;14.98;10.45;;;;;;;;;;5013619;27;92593;-61
2023/08/31 06:39:00;;;;;;;12.60;10.38;;;;;;;;;;5013067;27;93251;-60
2023/08/31 06:41:27;;;;;;;16.17;10.25;;;;;;;;;;5011681;27;92524;-61
2023/08/31 06:43:53;;;;;;;16.48;10.65;;;;;;;;;;5017354;27;92510;-60
2023/08/31 06:46:20;;;;;;;16.08;9.77;;;;;;;;;;5032319;27;93547;-61
2023/08/31 06:48:50;;;;;;;16.83;8.15;;;;;;;;;;5013201;27;95680;-61
2023/08/31 06:51:16;;;;;;;11.98;7.20;;;;;;;;;;5017023;27;92398;-60
2023/08/31 06:53:43;;;;;;;15.65;6.85;;;;;;;;;;5017584;27;93485;-60
2023/08/31 06:56:10;;;;;;;16.15;7.00;;;;;;;;;;5017279;28;95455;-60
2023/08/31 06:58:36;;;;;;;11.75;6.93;;;;;;;;;;5014696;27;92716;-60
2023/08/31 07:01:05;;;;;;;16.05;7.68;;;;;;;;;;5013370;27;93403;-61
2023/08/31 07:03:32;;;;;;;15.93;7.88;;;;;;;;;;5017720;27;93004;-60
2023/08/31 07:05:59;;;;;;;14.68;7.50;;;;;;;;;;5015261;27;93198;-60
2023/08/31 07:08:25;;;;;;;13.90;8.23;;;;;;;;;;5013071;27;94404;-60
2023/08/31 07:10:52;;;;;;;16.15;8.27;;;;;;;;;;5016544;27;92448;-60
2023/08/31 07:13:18;;;;;;;11.68;8.15;;;;;;;;;;5011895;27;95892;-60
2023/08/31 07:15:44;;;;;;;12.65;8.30;;;;;;;;;;5013400;27;92391;-60
2023/08/31 07:18:11;;;;;;;10.43;7.68;;;;;;;;;;5021202;27;93218;-60
2023/08/31 07:20:37;;;;;;;15.57;8.15;;;;;;;;;;5023510;27;93382;-60
2023/08/31 07:23:04;;;;;;;15.05;7.57;;;;;;;;;;5025374;27;92542;-60
2023/08/31 07:25:30;;;;;;;16.30;7.88;;;;;;;;;;5024491;27;93125;-61
2023/08/31 07:27:56;;;;;;;11.10;7.38;;;;;;;;;;5021687;27;93438;-61
2023/08/31 07:30:23;;;;;;;13.32;7.05;;;;;;;;;;5014319;27;91749;-61
2023/08/31 07:32:49;;;;;;;14.75;8.07;;;;;;;;;;5020610;27;93473;-61
2023/08/31 07:35:15;;;;;;;8.48;7.55;;;;;;;;;;5012655;27;92717;-61
2023/08/31 07:37:42;;;;;;;16.67;8.00;;;;;;;;;;5011606;27;94975;-61
2023/08/31 07:40:09;;;;;;;10.45;7.45;;;;;;;;;;5012616;27;93865;-61
2023/08/31 07:42:36;;;;;;;13.55;7.15;;;;;;;;;;5016522;27;92924;-61
2023/08/31 07:45:02;;;;;;;12.80;6.60;;;;;;;;;;5013309;27;93150;-61
2023/08/31 07:47:29;;;;;;;12.05;6.50;;;;;;;;;;5017239;27;93716;-61
2023/08/31 07:49:57;;;;;;;10.50;7.07;;;;;;;;;;5017352;27;92506;-61
2023/08/31 07:52:23;;;;;;;12.32;7.70;;;;;;;;;;5013340;27;95792;-61
2023/08/31 07:54:50;;;;;;;13.10;6.57;;;;;;;;;;5020543;27;93060;-61
2023/08/31 07:57:16;;;;;;;13.82;6.95;;;;;;;;;;5012325;27;92608;-61
2023/08/31 07:59:43;;;;;;;12.68;6.90;;;;;;;;;;5012690;27;93754;-61
2023/08/31 08:02:09;;;;;;;8.48;7.18;;;;;;;;;;5011286;27;94978;-61
2023/08/31 08:04:35;;;;;;;9.15;6.50;;;;;;;;;;5012549;27;95527;-61
2023/08/31 08:07:03;;;;;;;9.63;6.68;;;;;;;;;;5014151;27;93474;-61
2023/08/31 08:09:32;;;;;;;11.63;6.75;;;;;;;;;;5012722;27;92595;-61
2023/08/31 08:11:58;;;;;;;18.70;7.85;;;;;;;;;;5012881;27;93719;-61
2023/08/31 08:14:25;;;;;;;12.45;7.97;;;;;;;;;;5012477;27;94141;-61
2023/08/31 08:16:52;;;;;;;17.92;8.05;;;;;;;;;;5019913;27;92672;-61
2023/08/31 08:19:23;;;;;;;16.27;7.38;;;;;;;;;;5024400;28;94757;-61
2023/08/31 08:21:52;;;;;;;10.95;7.93;;;;;;;;;;5013649;27;92578;-61
2023/08/31 08:24:19;;;;;;;17.35;8.18;;;;;;;;;;5012037;27;93132;-61
2023/08/31 08:26:45;;;;;;;13.43;8.40;;;;;;;;;;5011134;27;95870;-61
2023/08/31 08:29:12;;;;;;;13.88;8.70;;;;;;;;;;5012066;27;92514;-61
2023/08/31 08:31:38;;;;;;;18.60;8.77;;;;;;;;;;5011662;27;93471;-60
2023/08/31 08:34:05;;;;;;;13.27;7.85;;;;;;;;;;5012344;27;93843;-60
2023/08/31 08:36:32;;;;;;;20.33;9.48;;;;;;;;;;5012604;27;92392;-61
2023/08/31 08:38:58;;;;;;;12.90;8.43;;;;;;;;;;5015445;27;94049;-61
2023/08/31 08:41:26;;;;;;;19.20;7.80;;;;;;;;;;5012094;27;92811;-61
2023/08/31 08:43:52;;;;;;;14.57;7.95;;;;;;;;;;5019809;27;93134;-61
2023/08/31 08:46:19;;;;;;;20.13;6.32;;;;;;;;;;5015158;27;93445;-61
2023/08/31 08:48:47;;;;;;;10.15;6.82;;;;;;;;;;5013270;27;92925;-61
2023/08/31 08:51:13;;;;;;;17.80;6.57;;;;;;;;;;5011953;27;95195;-61
2023/08/31 08:53:43;;;;;;;14.50;6.35;;;;;;;;;;5022602;27;94119;-61
2023/08/31 08:56:09;;;;;;;9.07;6.20;;;;;;;;;;5011706;27;92751;-62
2023/08/31 08:58:36;;;;;;;11.82;6.15;;;;;;;;;;5014811;27;93463;-61
2023/08/31 09:01:03;;;;;;;13.75;6.05;;;;;;;;;;5011951;27;92380;-61
2023/08/31 09:03:30;;;;;;;10.35;5.65;;;;;;;;;;5012002;27;94163;-61
2023/08/31 09:05:58;;;;;;;11.52;5.35;;;;;;;;;;5014710;27;94381;-61
2023/08/31 09:08:26;;;;;;;11.32;5.18;;;;;;;;;;5011881;27;91887;-61
2023/08/31 09:10:54;;;;;;;10.35;3.80;;;;;;;;;;5012344;27;93584;-61
2023/08/31 09:13:25;;;;;;;9.77;4.25;;;;;;;;;;5014730;27;93446;-61
2023/08/31 09:15:51;;;;;;;6.35;4.32;;;;;;;;;;5018169;27;95023;-61
2023/08/31 09:18:24;;;;;;;10.90;4.15;;;;;;;;;;5015640;27;94050;-61
2023/08/31 09:20:50;;;;;;;8.45;4.10;;;;;;;;;;5017376;27;93673;-61
2023/08/31 09:23:18;;;;;;;8.35;4.20;;;;;;;;;;5014640;27;93271;-61
2023/08/31 09:25:48;;;;;;;6.63;4.15;;;;;;;;;;5020899;27;93402;-61
2023/08/31 09:28:15;;;;;;;;;;;;;;;;;;5020662;27;92401;-59
2023/08/31 09:30:42;;;;;;;9.45;3.15;;;;;;;;;;5016158;27;124162;-61
2023/08/31 09:33:10;;;;;;;7.25;2.85;;;;;;;;;;5015208;27;92810;-61
2023/08/31 09:35:43;;;;;;;6.80;2.80;;;;;;;;;;5015372;27;92693;-61
2023/08/31 09:38:09;;;;;;;7.53;3.10;;;;;;;;;;5014596;27;92365;-62
2023/08/31 09:40:37;;;;;;;5.05;1.90;;;;;;;;;;5012315;27;96106;-62
2023/08/31 09:43:03;;;;;;;9.25;2.22;;;;;;;;;;5017358;27;92443;-61
2023/08/31 09:45:33;;;;;;;7.72;2.03;;;;;;;;;;5014530;27;93405;-61
2023/08/31 09:48:03;;;;;;;8.48;1.70;;;;;;;;;;5015420;27;92885;-61
2023/08/31 09:50:31;;;;;;;4.38;1.88;;;;;;;;;;5015486;27;94090;-61
2023/08/31 09:53:03;;;;;;;5.75;1.52;;;;;;;;;;5019253;27;93422;-61
2023/08/31 09:55:33;;;;;;;6.30;1.98;;;;;;;;;;5014705;27;92459;-61
2023/08/31 09:58:00;;;;;;;4.97;1.67;;;;;;;;;;5015097;27;93276;-61
2023/08/31 10:00:41;;;;;;;6.50;1.67;;;;;;;;;;5012980;27;93626;-61
2023/08/31 10:03:08;;;;;;;8.02;1.60;;;;;;;;;;5019461;27;93216;-61
2023/08/31 10:05:35;;;;;;;9.13;1.85;;;;;;;;;;5022156;27;94963;-62
2023/08/31 10:08:01;;;;;;;4.35;1.05;;;;;;;;;;5014272;27;92634;-62
2023/08/31 10:10:28;;;;;;;7.90;1.45;;;;;;;;;;5015046;27;92959;-62
2023/08/31 10:12:55;;;;;;;4.95;1.40;;;;;;;;;;5014025;27;93577;-62
2023/08/31 10:15:22;;;;;;;9.45;1.35;;;;;;;;;;5014048;27;92485;-62
2023/08/31 10:17:49;;;;;;;5.32;1.25;;;;;;;;;;5019956;27;94098;-62
2023/08/31 10:20:16;;;;;;;4.93;1.10;;;;;;;;;;5018320;27;93782;-62
2023/08/31 10:22:42;;;;;;;6.68;1.38;;;;;;;;;;5018241;27;91839;-61
2023/08/31 10:25:09;;;;;;;3.38;1.17;;;;;;;;;;5014651;27;92336;-61
2023/08/31 10:27:36;;;;;;;2.85;1.05;;;;;;;;;;5017150;27;94412;-61
2023/08/31 10:30:35;;;;;;;4.68;1.25;;;;;;;;;;5012447;27;94753;-61
2023/08/31 10:33:07;;;;;;;4.57;1.15;;;;;;;;;;4983861;27;93591;-61
2023/08/31 10:35:41;;;;;;;5.63;1.20;;;;;;;;;;5019004;27;93634;-62
2023/08/31 10:38:17;;;;;;;3.17;1.00;;;;;;;;;;5014134;27;93091;-62
2023/08/31 10:40:59;;;;;;;2.60;1.00;;;;;;;;;;5012991;27;93002;-61
2023/08/31 10:43:25;;;;;;;3.72;1.08;;;;;;;;;;5012853;27;94450;-61
2023/08/31 10:46:14;;;;;;;3.08;0.95;;;;;;;;;;5014996;27;94088;-62
2023/08/31 10:48:50;;;;;;;4.32;1.15;;;;;;;;;;5014233;27;91696;-62
2023/08/31 10:51:18;;;;;;;5.30;1.10;;;;;;;;;;5017632;27;92849;-62
2023/08/31 10:53:45;;;;;;;5.78;1.02;;;;;;;;;;5014636;27;94408;-60
2023/08/31 10:56:11;;;;;;;1.02;0.68;;;;;;;;;;5014842;27;94989;-62
2023/08/31 10:58:38;;;;;;;2.58;0.90;;;;;;;;;;5015161;27;95862;-63
2023/08/31 11:01:04;;;;;;;3.10;1.20;;;;;;;;;;5017088;27;93449;-60
2023/08/31 11:03:30;;;;;;;5.45;1.30;;;;;;;;;;5017753;27;92397;-59
2023/08/31 11:05:57;;;;;;;4.85;0.95;;;;;;;;;;5013783;27;93124;-62
2023/08/31 11:08:24;;;;;;;2.15;0.82;;;;;;;;;;5014605;27;94309;-62
2023/08/31 11:10:51;;;;;;;7.25;1.10;;;;;;;;;;5025007;27;92464;-62
2023/08/31 11:13:21;;;;;;;3.17;0.80;;;;;;;;;;5017353;27;93206;-61
2023/08/31 11:15:47;;;;;;;4.68;0.85;;;;;;;;;;5012996;27;92559;-61
2023/08/31 11:18:17;;;;;;;4.97;1.10;;;;;;;;;;5019041;27;92381;-61
2023/08/31 11:20:44;;;;;;;3.65;0.98;;;;;;;;;;5011060;27;95938;-62
2023/08/31 11:23:10;;;;;;;9.65;1.33;;;;;;;;;;5012752;27;92480;-61
2023/08/31 11:25:37;;;;;;;5.32;1.00;;;;;;;;;;5018608;27;92998;-61
2023/08/31 11:28:05;;;;;;;2.45;0.70;;;;;;;;;;5012789;27;93348;-61
2023/08/31 11:30:32;;;;;;;2.65;0.85;;;;;;;;;;5013810;27;92464;-61
2023/08/31 11:33:05;;;;;;;1.02;0.80;;;;;;;;;;5019015;27;93102;-61
2023/08/31 11:35:33;;;;;;;1.25;0.52;;;;;;;;;;5013073;27;92339;-61
2023/08/31 11:38:03;;;;;;;4.05;0.88;;;;;;;;;;5014413;27;94187;-61
2023/08/31 11:40:29;;;;;;;2.17;1.05;;;;;;;;;;5017078;27;93741;-61
2023/08/31 11:42:57;;;;;;;4.10;0.80;;;;;;;;;;5012682;27;92753;-61
2023/08/31 11:45:24;;;;;;;4.28;0.70;;;;;;;;;;5011537;27;94974;-61
2023/08/31 11:47:51;;;;;;;2.85;0.77;;;;;;;;;;5014310;27;94422;-61
2023/08/31 11:50:17;;;;;;;1.45;0.60;;;;;;;;;;5017501;27;92871;-61
2023/08/31 11:52:44;;;;;;;1.55;0.77;;;;;;;;;;5013178;27;94271;-61
2023/08/31 11:55:14;;;;;;;2.22;0.75;;;;;;;;;;5015881;27;93608;-61
2023/08/31 11:57:40;;;;;;;;;;;;;;;;;;5017221;27;92907;-58
2023/08/31 12:00:07;;;;;;;1.63;0.75;;;;;;;;;;5016811;27;124670;-61
2023/08/31 12:02:34;;;;;;;2.50;1.00;;;;;;;;;;5013637;27;91987;-61
2023/08/31 12:05:01;;;;;;;5.05;0.75;;;;;;;;;;5016844;27;92504;-61
2023/08/31 12:07:27;;;;;;;3.53;0.95;;;;;;;;;;5011969;27;94015;-60
2023/08/31 12:09:53;;;;;;;3.97;0.77;;;;;;;;;;5010934;27;94895;-61
2023/08/31 12:12:20;;;;;;;4.13;0.90;;;;;;;;;;5012967;27;96830;-60
2023/08/31 12:14:47;;;;;;;3.85;1.00;;;;;;;;;;5011960;27;94388;-60
2023/08/31 12:17:18;;;;;;;3.60;0.90;;;;;;;;;;5020858;27;92584;-61
2023/08/31 12:19:44;;;;;;;3.65;1.13;;;;;;;;;;5016549;27;93422;-61
2023/08/31 12:22:14;;;;;;;1.25;0.70;;;;;;;;;;5011871;27;92403;-61
2023/08/31 12:24:40;;;;;;;3.00;1.07;;;;;;;;;;5012816;27;93134;-61
2023/08/31 12:27:08;;;;;;;1.85;0.65;;;;;;;;;;5011439;27;93367;-61
2023/08/31 12:29:34;;;;;;;2.80;0.98;;;;;;;;;;5012724;27;93185;-61
2023/08/31 12:32:02;;;;;;;3.67;0.90;;;;;;;;;;5012354;27;94054;-59
2023/08/31 12:34:28;;;;;;;2.70;0.90;;;;;;;;;;5009226;27;98905;-59
2023/08/31 12:36:59;;;;;;;2.17;0.70;;;;;;;;;;5012479;27;92465;-59
2023/08/31 12:39:26;;;;;;;1.70;0.70;;;;;;;;;;5019625;27;93786;-59
2023/08/31 12:41:52;;;;;;;1.50;0.80;;;;;;;;;;5020520;27;92561;-59
2023/08/31 12:44:20;;;;;;;4.53;0.90;;;;;;;;;;5012462;27;93109;-59
2023/08/31 12:46:46;;;;;;;1.65;0.70;;;;;;;;;;5015990;27;93411;-59
2023/08/31 12:49:12;;;;;;;4.65;0.95;;;;;;;;;;5015728;27;92334;-59
2023/08/31 12:51:39;;;;;;;4.00;0.90;;;;;;;;;;5016329;27;94174;-60
2023/08/31 12:54:05;;;;;;;3.08;1.00;;;;;;;;;;5035639;27;95148;-59
2023/08/31 12:56:31;;;;;;;3.42;1.00;;;;;;;;;;5016465;27;92612;-60
2023/08/31 12:58:58;;;;;;;4.13;1.15;;;;;;;;;;5018438;27;95129;-59
2023/08/31 13:01:25;;;;;;;1.25;0.70;;;;;;;;;;5022179;27;93605;-59
2023/08/31 13:03:52;;;;;;;2.25;0.95;;;;;;;;;;5015879;27;94353;-59
2023/08/31 13:06:18;;;;;;;2.92;1.08;;;;;;;;;;5014650;27;93454;-60
2023/08/31 13:08:45;;;;;;;3.67;1.10;;;;;;;;;;5016025;27;92515;-59
2023/08/31 13:11:14;;;;;;;2.75;1.10;;;;;;;;;;5018690;27;93049;-60
2023/08/31 13:13:41;;;;;;;1.40;0.70;;;;;;;;;;5015458;27;94453;-59
2023/08/31 13:16:07;;;;;;;2.58;0.90;;;;;;;;;;5017981;27;91684;-59
2023/08/31 13:18:34;;;;;;;5.88;0.93;;;;;;;;;;5015712;27;92572;-59
2023/08/31 13:21:01;;;;;;;1.60;0.90;;;;;;;;;;5017981;27;93449;-59
2023/08/31 13:23:28;;;;;;;4.65;0.70;;;;;;;;;;5013709;27;95006;-59
2023/08/31 13:25:56;;;;;;;2.95;1.10;;;;;;;;;;5015298;27;94410;-59
2023/08/31 13:28:22;;;;;;;2.83;1.10;;;;;;;;;;5019531;27;92470;-59
2023/08/31 13:30:48;;;;;;;3.40;1.08;;;;;;;;;;5014998;27;94241;-60
2023/08/31 13:33:15;;;;;;;10.20;1.33;;;;;;;;;;5014317;27;93502;-59
2023/08/31 13:35:41;;;;;;;2.42;0.85;;;;;;;;;;5014562;27;92527;-60
2023/08/31 13:38:08;;;;;;;3.55;0.90;;;;;;;;;;5014869;27;93146;-60
2023/08/31 13:40:35;;;;;;;2.58;1.02;;;;;;;;;;5015161;27;92766;-59
2023/08/31 13:43:02;;;;;;;2.85;1.00;;;;;;;;;;5016895;27;92534;-59
2023/08/31 13:45:30;;;;;;;2.30;0.77;;;;;;;;;;5015105;27;94452;-59
2023/08/31 13:47:58;;;;;;;2.25;0.90;;;;;;;;;;5019013;27;94919;-60
2023/08/31 13:50:25;;;;;;;2.67;0.90;;;;;;;;;;5014615;27;96690;-60
2023/08/31 13:52:52;;;;;;;1.52;0.98;;;;;;;;;;5013863;27;93509;-60
2023/08/31 13:55:18;;;;;;;6.18;1.35;;;;;;;;;;5016380;27;93080;-60
2023/08/31 13:57:45;;;;;;;4.05;1.00;;;;;;;;;;5014604;27;94218;-60
2023/08/31 14:00:12;;;;;;;4.68;1.00;;;;;;;;;;5014423;27;94488;-60
2023/08/31 14:02:38;;;;;;;1.75;0.88;;;;;;;;;;5020022;27;92800;-60
2023/08/31 14:05:08;;;;;;;2.20;1.15;;;;;;;;;;5017798;27;92284;-60
2023/08/31 14:07:38;;;;;;;2.03;0.80;;;;;;;;;;5014504;27;92702;-60
2023/08/31 14:10:07;;;;;;;2.88;1.00;;;;;;;;;;5018958;27;93209;-60
2023/08/31 14:12:34;;;;;;;2.08;0.80;;;;;;;;;;5013001;27;95885;-60
2023/08/31 14:15:04;;;;;;;1.55;0.80;;;;;;;;;;5014232;27;92555;-60
2023/08/31 14:17:31;;;;;;;4.35;0.90;;;;;;;;;;5017355;27;93827;-60
2023/08/31 14:20:06;;;;;;;5.13;1.15;;;;;;;;;;5013205;27;93366;-60
2023/08/31 14:22:32;;;;;;;3.20;1.02;;;;;;;;;;5014014;27;92450;-60
2023/08/31 14:24:59;;;;;;;1.45;0.95;;;;;;;;;;5017845;27;92417;-60
2023/08/31 14:27:27;;;;;;;2.20;1.20;;;;;;;;;;5021623;27;93381;-60
2023/08/31 14:29:53;;;;;;;4.68;0.93;;;;;;;;;;5018365;27;93058;-60
2023/08/31 14:32:19;;;;;;;1.88;0.85;;;;;;;;;;5014136;27;94449;-60
2023/08/31 14:34:46;;;;;;;3.08;0.82;;;;;;;;;;5013909;27;92537;-60
2023/08/31 14:37:13;;;;;;;3.15;1.23;;;;;;;;;;5016450;27;94841;-60